sensor_id;sensor_type;location;lat;lon;timestamp;temperature;humidity
29577;DHT22;16509;53.862;10.672;2022-10-16T00:01:59;15.10;99.90
29577;DHT22;16509;53.862;10.672;2022-10-16T00:04:27;14.50;99.90
29577;DHT22;16509;53.862;10.672;2022-10-16T00:06:53;13.90;99.90
29577;DHT22;16509;53.862;10.672;2022-10-16T00:09:18;13.90;99.90
29577;DHT22;16509;53.862;10.672;2022-10-16T00:11:45;14.10;99.90
29577;DHT22;16509;53.862;10.672;2022-10-16T00:14:14;14.10;99.90
29577;DHT22;16509;53.862;10.672;2022-10-16T00:16:40;16.00;99.90
29577;DHT22;16509;53.862;10.672;2022-10-16T00:19:06;14.30;99.90
29577;DHT22;16509;53.862;10.672;2022-10-16T00:21:33;14.00;99.90
29577;DHT22;16509;53.862;10.672;2022-10-16T00:24:04;14.10;99.90
29577;DHT22;16509;53.862;10.672;2022-10-16T00:26:33;14.20;99.90
29577;DHT22;16509;53.862;10.672;2022-10-16T00:28:59;14.10;99.90
29577;DHT22;16509;53.862;10.672;2022-10-16T00:31:25;14.30;99.90
29577;DHT22;16509;53.862;10.672;2022-10-16T00:33:51;14.20;99.90
29577;DHT22;16509;53.862;10.672;2022-10-16T00:36:21;14.00;99.90
29577;DHT22;16509;53.862;10.672;2022-10-16T00:38:49;14.70;99.90
29577;DHT22;16509;53.862;10.672;2022-10-16T00:41:16;13.80;99.90
29577;DHT22;16509;53.862;10.672;2022-10-16T00:43:55;14.30;99.90
29577;DHT22;16509;53.862;10.672;2022-10-16T00:48:53;14.10;99.90
29577;DHT22;16509;53.862;10.672;2022-10-16T00:51:24;14.50;99.90
29577;DHT22;16509;53.862;10.672;2022-10-16T00:53:55;14.20;99.90
29577;DHT22;16509;53.862;10.672;2022-10-16T00:56:20;13.70;99.90
29577;DHT22;16509;53.862;10.672;2022-10-16T00:58:46;13.80;99.90
29577;DHT22;16509;53.862;10.672;2022-10-16T01:01:12;14.20;99.90
29577;DHT22;16509;53.862;10.672;2022-10-16T01:03:38;14.20;99.90
29577;DHT22;16509;53.862;10.672;2022-10-16T01:06:09;14.10;99.90
29577;DHT22;16509;53.862;10.672;2022-10-16T01:09:06;14.10;99.90
29577;DHT22;16509;53.862;10.672;2022-10-16T01:17:07;15.10;99.90
29577;DHT22;16509;53.862;10.672;2022-10-16T01:20:04;14.00;99.90
29577;DHT22;16509;53.862;10.672;2022-10-16T01:25:25;13.90;99.90
29577;DHT22;16509;53.862;10.672;2022-10-16T01:27:56;13.90;99.90
29577;DHT22;16509;53.862;10.672;2022-10-16T01:30:30;13.80;99.90
29577;DHT22;16509;53.862;10.672;2022-10-16T01:33:02;13.80;99.90
29577;DHT22;16509;53.862;10.672;2022-10-16T01:35:39;13.80;99.90
29577;DHT22;16509;53.862;10.672;2022-10-16T01:40:42;13.90;99.90
29577;DHT22;16509;53.862;10.672;2022-10-16T01:43:22;13.50;99.90
29577;DHT22;16509;53.862;10.672;2022-10-16T01:45:49;13.50;99.90
29577;DHT22;16509;53.862;10.672;2022-10-16T01:48:20;13.50;99.90
29577;DHT22;16509;53.862;10.672;2022-10-16T01:51:00;13.60;99.90
29577;DHT22;16509;53.862;10.672;2022-10-16T01:53:27;13.70;99.90
29577;DHT22;16509;53.862;10.672;2022-10-16T01:55:55;13.70;99.90
29577;DHT22;16509;53.862;10.672;2022-10-16T01:58:23;13.30;99.90
29577;DHT22;16509;53.862;10.672;2022-10-16T02:00:51;13.60;99.90
29577;DHT22;16509;53.862;10.672;2022-10-16T02:03:21;14.90;99.90
29577;DHT22;16509;53.862;10.672;2022-10-16T02:05:51;13.40;99.90
29577;DHT22;16509;53.862;10.672;2022-10-16T02:08:21;14.40;99.90
29577;DHT22;16509;53.862;10.672;2022-10-16T02:10:48;13.80;99.90
29577;DHT22;16509;53.862;10.672;2022-10-16T02:13:36;13.90;99.90
29577;DHT22;16509;53.862;10.672;2022-10-16T02:16:03;13.40;99.90
29577;DHT22;16509;53.862;10.672;2022-10-16T02:18:28;13.40;99.90
29577;DHT22;16509;53.862;10.672;2022-10-16T02:21:07;13.30;99.90
29577;DHT22;16509;53.862;10.672;2022-10-16T02:23:57;13.50;99.90
29577;DHT22;16509;53.862;10.672;2022-10-16T02:26:36;13.40;99.90
29577;DHT22;16509;53.862;10.672;2022-10-16T02:29:11;13.30;99.90
29577;DHT22;16509;53.862;10.672;2022-10-16T02:31:41;13.30;99.90
29577;DHT22;16509;53.862;10.672;2022-10-16T02:34:16;13.40;99.90
29577;DHT22;16509;53.862;10.672;2022-10-16T02:36:50;13.60;99.90
29577;DHT22;16509;53.862;10.672;2022-10-16T02:39:18;13.80;99.90
29577;DHT22;16509;53.862;10.672;2022-10-16T02:41:46;13.20;99.90
29577;DHT22;16509;53.862;10.672;2022-10-16T02:44:12;13.40;99.90
29577;DHT22;16509;53.862;10.672;2022-10-16T02:46:42;13.40;99.90
29577;DHT22;16509;53.862;10.672;2022-10-16T02:49:09;13.30;99.90
29577;DHT22;16509;53.862;10.672;2022-10-16T02:51:35;13.20;99.90
29577;DHT22;16509;53.862;10.672;2022-10-16T02:54:02;13.50;99.90
29577;DHT22;16509;53.862;10.672;2022-10-16T02:56:27;13.70;99.90
29577;DHT22;16509;53.862;10.672;2022-10-16T02:58:53;12.90;99.90
29577;DHT22;16509;53.862;10.672;2022-10-16T03:01:18;12.90;99.90
29577;DHT22;16509;53.862;10.672;2022-10-16T03:03:44;14.40;99.90
29577;DHT22;16509;53.862;10.672;2022-10-16T03:06:11;13.00;99.90
29577;DHT22;16509;53.862;10.672;2022-10-16T03:08:37;14.30;99.90
29577;DHT22;16509;53.862;10.672;2022-10-16T03:11:03;14.30;99.90
29577;DHT22;16509;53.862;10.672;2022-10-16T03:13:28;13.30;99.90
29577;DHT22;16509;53.862;10.672;2022-10-16T03:15:54;13.40;99.90
29577;DHT22;16509;53.862;10.672;2022-10-16T03:18:23;12.90;99.90
29577;DHT22;16509;53.862;10.672;2022-10-16T03:20:48;13.10;99.90
29577;DHT22;16509;53.862;10.672;2022-10-16T03:23:14;12.90;99.90
29577;DHT22;16509;53.862;10.672;2022-10-16T03:25:40;12.80;99.90
29577;DHT22;16509;53.862;10.672;2022-10-16T03:28:05;13.00;99.90
29577;DHT22;16509;53.862;10.672;2022-10-16T03:30:31;12.80;99.90
29577;DHT22;16509;53.862;10.672;2022-10-16T03:32:56;13.40;99.90
29577;DHT22;16509;53.862;10.672;2022-10-16T03:35:24;12.60;99.90
29577;DHT22;16509;53.862;10.672;2022-10-16T03:37:51;12.70;99.90
29577;DHT22;16509;53.862;10.672;2022-10-16T03:40:17;12.50;99.90
29577;DHT22;16509;53.862;10.672;2022-10-16T03:42:43;12.70;99.90
29577;DHT22;16509;53.862;10.672;2022-10-16T03:45:10;12.70;99.90
29577;DHT22;16509;53.862;10.672;2022-10-16T03:47:37;13.20;99.90
29577;DHT22;16509;53.862;10.672;2022-10-16T03:50:03;12.60;99.90
29577;DHT22;16509;53.862;10.672;2022-10-16T03:52:28;12.80;99.90
29577;DHT22;16509;53.862;10.672;2022-10-16T03:54:55;12.40;99.90
29577;DHT22;16509;53.862;10.672;2022-10-16T03:57:21;12.40;99.90
29577;DHT22;16509;53.862;10.672;2022-10-16T03:59:47;12.60;99.90
29577;DHT22;16509;53.862;10.672;2022-10-16T04:02:13;12.40;99.90
29577;DHT22;16509;53.862;10.672;2022-10-16T04:04:39;12.40;99.90
29577;DHT22;16509;53.862;10.672;2022-10-16T04:07:04;12.30;99.90
29577;DHT22;16509;53.862;10.672;2022-10-16T04:09:30;12.70;99.90
29577;DHT22;16509;53.862;10.672;2022-10-16T04:11:56;13.60;99.90
29577;DHT22;16509;53.862;10.672;2022-10-16T04:14:22;12.10;99.90
29577;DHT22;16509;53.862;10.672;2022-10-16T04:16:48;13.40;99.90
29577;DHT22;16509;53.862;10.672;2022-10-16T04:19:13;12.60;99.90
29577;DHT22;16509;53.862;10.672;2022-10-16T04:21:39;12.10;99.90
29577;DHT22;16509;53.862;10.672;2022-10-16T04:24:04;13.20;99.90
29577;DHT22;16509;53.862;10.672;2022-10-16T04:26:31;14.30;99.90
29577;DHT22;16509;53.862;10.672;2022-10-16T04:28:57;14.20;99.90
29577;DHT22;16509;53.862;10.672;2022-10-16T04:31:24;12.40;99.90
29577;DHT22;16509;53.862;10.672;2022-10-16T04:33:50;12.60;99.90
29577;DHT22;16509;53.862;10.672;2022-10-16T04:36:15;12.30;99.90
29577;DHT22;16509;53.862;10.672;2022-10-16T04:38:41;12.90;99.90
29577;DHT22;16509;53.862;10.672;2022-10-16T04:41:07;12.20;99.90
29577;DHT22;16509;53.862;10.672;2022-10-16T04:43:33;12.70;99.90
29577;DHT22;16509;53.862;10.672;2022-10-16T04:45:59;12.50;99.90
29577;DHT22;16509;53.862;10.672;2022-10-16T04:48:26;13.10;99.90
29577;DHT22;16509;53.862;10.672;2022-10-16T04:50:54;12.50;99.90
29577;DHT22;16509;53.862;10.672;2022-10-16T04:53:20;12.30;99.90
29577;DHT22;16509;53.862;10.672;2022-10-16T04:55:47;14.10;99.90
29577;DHT22;16509;53.862;10.672;2022-10-16T04:58:13;12.20;99.90
29577;DHT22;16509;53.862;10.672;2022-10-16T05:00:39;12.10;99.90
29577;DHT22;16509;53.862;10.672;2022-10-16T05:03:05;12.40;99.90
29577;DHT22;16509;53.862;10.672;2022-10-16T05:05:34;12.30;99.90
29577;DHT22;16509;53.862;10.672;2022-10-16T05:08:02;12.20;99.90
29577;DHT22;16509;53.862;10.672;2022-10-16T05:10:29;12.20;99.90
29577;DHT22;16509;53.862;10.672;2022-10-16T05:12:54;11.90;99.90
29577;DHT22;16509;53.862;10.672;2022-10-16T05:15:20;14.10;99.90
29577;DHT22;16509;53.862;10.672;2022-10-16T05:17:46;12.60;99.90
29577;DHT22;16509;53.862;10.672;2022-10-16T05:20:13;12.10;99.90
29577;DHT22;16509;53.862;10.672;2022-10-16T05:22:38;12.50;99.90
29577;DHT22;16509;53.862;10.672;2022-10-16T05:25:04;12.30;99.90
29577;DHT22;16509;53.862;10.672;2022-10-16T05:27:30;12.50;99.90
29577;DHT22;16509;53.862;10.672;2022-10-16T05:29:55;12.90;99.90
29577;DHT22;16509;53.862;10.672;2022-10-16T05:32:21;12.90;99.90
29577;DHT22;16509;53.862;10.672;2022-10-16T05:34:47;12.40;99.90
29577;DHT22;16509;53.862;10.672;2022-10-16T05:37:12;12.50;99.90
29577;DHT22;16509;53.862;10.672;2022-10-16T05:39:38;13.40;99.90
29577;DHT22;16509;53.862;10.672;2022-10-16T05:42:05;13.10;99.90
29577;DHT22;16509;53.862;10.672;2022-10-16T05:44:30;13.00;99.90
29577;DHT22;16509;53.862;10.672;2022-10-16T05:46:56;12.70;99.90
29577;DHT22;16509;53.862;10.672;2022-10-16T05:49:22;12.20;99.90
29577;DHT22;16509;53.862;10.672;2022-10-16T05:51:47;12.40;99.90
29577;DHT22;16509;53.862;10.672;2022-10-16T05:54:13;12.10;99.90
29577;DHT22;16509;53.862;10.672;2022-10-16T05:56:38;12.40;99.90
29577;DHT22;16509;53.862;10.672;2022-10-16T05:59:05;12.40;99.90
29577;DHT22;16509;53.862;10.672;2022-10-16T06:01:31;12.10;99.90
29577;DHT22;16509;53.862;10.672;2022-10-16T06:03:57;12.20;99.90
29577;DHT22;16509;53.862;10.672;2022-10-16T06:06:25;12.30;99.90
29577;DHT22;16509;53.862;10.672;2022-10-16T06:08:52;12.20;99.90
29577;DHT22;16509;53.862;10.672;2022-10-16T06:11:28;12.30;99.90
29577;DHT22;16509;53.862;10.672;2022-10-16T06:13:56;12.40;99.90
29577;DHT22;16509;53.862;10.672;2022-10-16T06:16:23;12.30;99.90
29577;DHT22;16509;53.862;10.672;2022-10-16T06:28:46;12.60;99.90
29577;DHT22;16509;53.862;10.672;2022-10-16T06:31:13;12.40;99.90
29577;DHT22;16509;53.862;10.672;2022-10-16T06:33:39;12.50;99.90
29577;DHT22;16509;53.862;10.672;2022-10-16T06:36:08;12.40;99.90
29577;DHT22;16509;53.862;10.672;2022-10-16T06:38:35;12.60;99.90
29577;DHT22;16509;53.862;10.672;2022-10-16T06:41:03;12.60;99.90
29577;DHT22;16509;53.862;10.672;2022-10-16T06:43:29;12.60;99.90
29577;DHT22;16509;53.862;10.672;2022-10-16T06:45:58;12.80;99.90
29577;DHT22;16509;53.862;10.672;2022-10-16T06:48:25;13.20;99.90
29577;DHT22;16509;53.862;10.672;2022-10-16T06:50:57;13.20;99.90
29577;DHT22;16509;53.862;10.672;2022-10-16T06:53:23;12.50;99.90
29577;DHT22;16509;53.862;10.672;2022-10-16T06:55:49;12.30;99.90
29577;DHT22;16509;53.862;10.672;2022-10-16T06:58:14;13.20;99.90
29577;DHT22;16509;53.862;10.672;2022-10-16T07:00:40;11.90;99.90
29577;DHT22;16509;53.862;10.672;2022-10-16T07:03:05;12.40;99.90
29577;DHT22;16509;53.862;10.672;2022-10-16T07:05:31;12.90;99.90
29577;DHT22;16509;53.862;10.672;2022-10-16T07:07:56;12.50;99.90
29577;DHT22;16509;53.862;10.672;2022-10-16T07:10:22;14.40;99.90
29577;DHT22;16509;53.862;10.672;2022-10-16T07:12:49;12.60;99.90
29577;DHT22;16509;53.862;10.672;2022-10-16T07:15:15;12.90;99.90
29577;DHT22;16509;53.862;10.672;2022-10-16T07:17:40;12.90;99.90
29577;DHT22;16509;53.862;10.672;2022-10-16T07:20:06;13.00;99.90
29577;DHT22;16509;53.862;10.672;2022-10-16T07:22:32;13.10;99.90
29577;DHT22;16509;53.862;10.672;2022-10-16T07:24:58;13.30;99.90
29577;DHT22;16509;53.862;10.672;2022-10-16T07:27:24;12.90;99.90
29577;DHT22;16509;53.862;10.672;2022-10-16T07:29:49;14.60;99.90
29577;DHT22;16509;53.862;10.672;2022-10-16T07:32:15;13.70;99.90
29577;DHT22;16509;53.862;10.672;2022-10-16T07:34:41;13.30;99.90
29577;DHT22;16509;53.862;10.672;2022-10-16T07:37:07;13.70;99.90
29577;DHT22;16509;53.862;10.672;2022-10-16T07:39:33;13.40;99.90
29577;DHT22;16509;53.862;10.672;2022-10-16T07:41:58;13.60;99.90
29577;DHT22;16509;53.862;10.672;2022-10-16T07:44:24;13.40;99.90
29577;DHT22;16509;53.862;10.672;2022-10-16T07:46:50;14.70;99.90
29577;DHT22;16509;53.862;10.672;2022-10-16T07:49:15;14.80;99.90
29577;DHT22;16509;53.862;10.672;2022-10-16T07:51:43;14.10;99.90
29577;DHT22;16509;53.862;10.672;2022-10-16T07:54:11;14.50;99.90
29577;DHT22;16509;53.862;10.672;2022-10-16T07:56:41;14.00;99.90
29577;DHT22;16509;53.862;10.672;2022-10-16T07:59:08;13.90;99.90
29577;DHT22;16509;53.862;10.672;2022-10-16T08:01:33;15.80;99.90
29577;DHT22;16509;53.862;10.672;2022-10-16T08:04:00;16.10;99.90
29577;DHT22;16509;53.862;10.672;2022-10-16T08:06:28;15.90;99.90
29577;DHT22;16509;53.862;10.672;2022-10-16T08:08:54;15.20;99.90
29577;DHT22;16509;53.862;10.672;2022-10-16T08:11:20;14.60;99.90
29577;DHT22;16509;53.862;10.672;2022-10-16T08:13:46;16.20;99.90
29577;DHT22;16509;53.862;10.672;2022-10-16T08:16:12;15.60;99.90
29577;DHT22;16509;53.862;10.672;2022-10-16T08:18:39;14.50;99.90
29577;DHT22;16509;53.862;10.672;2022-10-16T08:21:07;14.70;99.90
29577;DHT22;16509;53.862;10.672;2022-10-16T08:23:35;14.80;99.90
29577;DHT22;16509;53.862;10.672;2022-10-16T08:26:05;14.80;99.90
29577;DHT22;16509;53.862;10.672;2022-10-16T08:28:33;14.60;99.90
29577;DHT22;16509;53.862;10.672;2022-10-16T08:31:15;14.40;99.90
29577;DHT22;16509;53.862;10.672;2022-10-16T08:33:42;14.70;99.90
29577;DHT22;16509;53.862;10.672;2022-10-16T08:36:10;14.70;99.90
29577;DHT22;16509;53.862;10.672;2022-10-16T08:38:36;16.20;99.90
29577;DHT22;16509;53.862;10.672;2022-10-16T08:49:12;14.90;99.90
29577;DHT22;16509;53.862;10.672;2022-10-16T08:51:41;17.00;99.90
29577;DHT22;16509;53.862;10.672;2022-10-16T08:54:31;15.30;99.90
29577;DHT22;16509;53.862;10.672;2022-10-16T08:57:15;15.00;99.90
29577;DHT22;16509;53.862;10.672;2022-10-16T08:59:43;14.90;99.90
29577;DHT22;16509;53.862;10.672;2022-10-16T09:05:22;15.40;99.90
29577;DHT22;16509;53.862;10.672;2022-10-16T09:13:21;15.50;99.90
29577;DHT22;16509;53.862;10.672;2022-10-16T09:16:10;15.40;99.90
29577;DHT22;16509;53.862;10.672;2022-10-16T09:21:25;15.70;99.90
29577;DHT22;16509;53.862;10.672;2022-10-16T09:23:51;15.80;99.90
29577;DHT22;16509;53.862;10.672;2022-10-16T09:26:25;16.20;99.90
29577;DHT22;16509;53.862;10.672;2022-10-16T09:28:52;15.70;99.90
29577;DHT22;16509;53.862;10.672;2022-10-16T09:31:20;17.20;99.90
29577;DHT22;16509;53.862;10.672;2022-10-16T09:33:58;16.10;99.90
29577;DHT22;16509;53.862;10.672;2022-10-16T09:36:26;16.10;99.90
29577;DHT22;16509;53.862;10.672;2022-10-16T09:39:08;17.10;99.90
29577;DHT22;16509;53.862;10.672;2022-10-16T09:41:43;16.30;99.90
29577;DHT22;16509;53.862;10.672;2022-10-16T09:44:27;17.70;99.90
29577;DHT22;16509;53.862;10.672;2022-10-16T09:47:05;16.40;99.90
29577;DHT22;16509;53.862;10.672;2022-10-16T09:49:31;16.50;99.90
29577;DHT22;16509;53.862;10.672;2022-10-16T09:52:05;16.70;99.90
29577;DHT22;16509;53.862;10.672;2022-10-16T09:54:31;16.60;99.90
29577;DHT22;16509;53.862;10.672;2022-10-16T09:57:12;16.90;99.90
29577;DHT22;16509;53.862;10.672;2022-10-16T09:59:47;16.70;99.90
29577;DHT22;16509;53.862;10.672;2022-10-16T10:02:14;17.10;99.90
29577;DHT22;16509;53.862;10.672;2022-10-16T10:04:53;16.80;99.90
29577;DHT22;16509;53.862;10.672;2022-10-16T10:07:33;18.00;99.90
29577;DHT22;16509;53.862;10.672;2022-10-16T10:10:03;17.10;99.90
29577;DHT22;16509;53.862;10.672;2022-10-16T10:12:33;17.20;99.90
29577;DHT22;16509;53.862;10.672;2022-10-16T10:15:13;17.20;99.90
29577;DHT22;16509;53.862;10.672;2022-10-16T10:17:50;17.40;99.90
29577;DHT22;16509;53.862;10.672;2022-10-16T10:22:53;17.40;99.90
29577;DHT22;16509;53.862;10.672;2022-10-16T10:28:22;17.50;99.90
29577;DHT22;16509;53.862;10.672;2022-10-16T10:31:20;17.60;99.90
29577;DHT22;16509;53.862;10.672;2022-10-16T10:37:15;18.10;99.90
29577;DHT22;16509;53.862;10.672;2022-10-16T10:40:24;18.00;99.90
29577;DHT22;16509;53.862;10.672;2022-10-16T10:45:48;18.20;99.90
29577;DHT22;16509;53.862;10.672;2022-10-16T10:48:18;18.00;99.90
29577;DHT22;16509;53.862;10.672;2022-10-16T10:51:26;18.50;99.90
29577;DHT22;16509;53.862;10.672;2022-10-16T10:54:14;18.60;99.90
29577;DHT22;16509;53.862;10.672;2022-10-16T11:07:52;18.30;99.90
29577;DHT22;16509;53.862;10.672;2022-10-16T11:10:27;18.30;99.90
29577;DHT22;16509;53.862;10.672;2022-10-16T11:13:16;18.30;99.90
29577;DHT22;16509;53.862;10.672;2022-10-16T11:15:45;18.70;99.90
29577;DHT22;16509;53.862;10.672;2022-10-16T11:18:20;18.90;99.90
29577;DHT22;16509;53.862;10.672;2022-10-16T11:20:53;19.30;99.90
29577;DHT22;16509;53.862;10.672;2022-10-16T11:23:33;19.70;99.90
29577;DHT22;16509;53.862;10.672;2022-10-16T11:26:04;20.20;99.90
29577;DHT22;16509;53.862;10.672;2022-10-16T11:28:37;19.70;99.90
29577;DHT22;16509;53.862;10.672;2022-10-16T11:37:03;19.60;99.90
29577;DHT22;16509;53.862;10.672;2022-10-16T11:39:30;19.50;99.90
29577;DHT22;16509;53.862;10.672;2022-10-16T11:42:16;20.40;99.90
29577;DHT22;16509;53.862;10.672;2022-10-16T11:47:44;20.10;99.90
29577;DHT22;16509;53.862;10.672;2022-10-16T11:50:23;20.20;99.90
29577;DHT22;16509;53.862;10.672;2022-10-16T11:55:40;19.40;99.90
29577;DHT22;16509;53.862;10.672;2022-10-16T12:00:47;19.30;99.90
29577;DHT22;16509;53.862;10.672;2022-10-16T12:03:32;19.10;99.90
29577;DHT22;16509;53.862;10.672;2022-10-16T12:08:44;18.50;99.90
29577;DHT22;16509;53.862;10.672;2022-10-16T12:13:51;19.00;99.90
29577;DHT22;16509;53.862;10.672;2022-10-16T12:18:44;18.30;99.90
29577;DHT22;16509;53.862;10.672;2022-10-16T12:21:12;19.90;99.90
29577;DHT22;16509;53.862;10.672;2022-10-16T12:23:52;18.40;99.90
29577;DHT22;16509;53.862;10.672;2022-10-16T12:26:38;18.50;99.90
29577;DHT22;16509;53.862;10.672;2022-10-16T12:29:23;18.40;99.90
29577;DHT22;16509;53.862;10.672;2022-10-16T12:31:49;18.40;99.90
29577;DHT22;16509;53.862;10.672;2022-10-16T12:34:41;18.40;99.90
29577;DHT22;16509;53.862;10.672;2022-10-16T12:37:41;18.50;99.90
29577;DHT22;16509;53.862;10.672;2022-10-16T12:40:12;18.60;99.90
29577;DHT22;16509;53.862;10.672;2022-10-16T12:42:38;18.50;99.90
29577;DHT22;16509;53.862;10.672;2022-10-16T12:47:50;18.20;99.90
29577;DHT22;16509;53.862;10.672;2022-10-16T12:52:50;17.90;99.90
29577;DHT22;16509;53.862;10.672;2022-10-16T12:55:18;18.30;99.90
29577;DHT22;16509;53.862;10.672;2022-10-16T12:58:18;18.10;99.90
29577;DHT22;16509;53.862;10.672;2022-10-16T13:00:57;17.90;99.90
29577;DHT22;16509;53.862;10.672;2022-10-16T13:03:30;18.10;99.90
29577;DHT22;16509;53.862;10.672;2022-10-16T13:06:12;17.70;99.90
29577;DHT22;16509;53.862;10.672;2022-10-16T13:12:06;17.70;99.90
29577;DHT22;16509;53.862;10.672;2022-10-16T13:15:04;17.80;99.90
29577;DHT22;16509;53.862;10.672;2022-10-16T13:18:13;17.70;99.90
29577;DHT22;16509;53.862;10.672;2022-10-16T13:21:00;18.00;99.90
29577;DHT22;16509;53.862;10.672;2022-10-16T13:28:48;17.70;99.90
29577;DHT22;16509;53.862;10.672;2022-10-16T13:31:18;17.70;99.90
29577;DHT22;16509;53.862;10.672;2022-10-16T13:33:51;17.90;99.90
29577;DHT22;16509;53.862;10.672;2022-10-16T13:36:33;18.20;99.90
29577;DHT22;16509;53.862;10.672;2022-10-16T13:39:35;18.20;99.90
29577;DHT22;16509;53.862;10.672;2022-10-16T13:44:33;17.70;99.90
29577;DHT22;16509;53.862;10.672;2022-10-16T13:47:00;18.20;99.90
29577;DHT22;16509;53.862;10.672;2022-10-16T13:49:26;18.00;99.90
29577;DHT22;16509;53.862;10.672;2022-10-16T13:51:59;17.90;99.90
29577;DHT22;16509;53.862;10.672;2022-10-16T13:54:26;17.90;99.90
29577;DHT22;16509;53.862;10.672;2022-10-16T13:56:53;17.60;99.90
29577;DHT22;16509;53.862;10.672;2022-10-16T13:59:24;17.50;99.90
29577;DHT22;16509;53.862;10.672;2022-10-16T14:01:55;18.90;99.90
29577;DHT22;16509;53.862;10.672;2022-10-16T14:04:21;17.70;99.90
29577;DHT22;16509;53.862;10.672;2022-10-16T14:06:50;17.50;99.90
29577;DHT22;16509;53.862;10.672;2022-10-16T14:09:25;17.90;99.90
29577;DHT22;16509;53.862;10.672;2022-10-16T14:11:58;18.00;99.90
29577;DHT22;16509;53.862;10.672;2022-10-16T14:14:27;17.90;99.90
29577;DHT22;16509;53.862;10.672;2022-10-16T14:16:57;17.90;99.90
29577;DHT22;16509;53.862;10.672;2022-10-16T14:19:25;18.50;99.90
29577;DHT22;16509;53.862;10.672;2022-10-16T14:21:52;17.60;99.90
29577;DHT22;16509;53.862;10.672;2022-10-16T14:24:33;17.60;99.90
29577;DHT22;16509;53.862;10.672;2022-10-16T14:26:59;17.90;99.90
29577;DHT22;16509;53.862;10.672;2022-10-16T14:29:27;17.90;99.90
29577;DHT22;16509;53.862;10.672;2022-10-16T14:32:04;17.80;99.90
29577;DHT22;16509;53.862;10.672;2022-10-16T14:34:33;17.60;99.90
29577;DHT22;16509;53.862;10.672;2022-10-16T14:37:23;17.70;99.90
29577;DHT22;16509;53.862;10.672;2022-10-16T14:39:50;17.40;99.90
29577;DHT22;16509;53.862;10.672;2022-10-16T14:42:18;18.10;99.90
29577;DHT22;16509;53.862;10.672;2022-10-16T14:44:46;17.30;99.90
29577;DHT22;16509;53.862;10.672;2022-10-16T14:47:14;17.20;99.90
29577;DHT22;16509;53.862;10.672;2022-10-16T14:49:41;17.20;99.90
29577;DHT22;16509;53.862;10.672;2022-10-16T14:52:10;17.80;99.90
29577;DHT22;16509;53.862;10.672;2022-10-16T14:54:36;17.10;99.90
29577;DHT22;16509;53.862;10.672;2022-10-16T14:57:01;18.60;99.90
29577;DHT22;16509;53.862;10.672;2022-10-16T14:59:35;16.90;99.90
29577;DHT22;16509;53.862;10.672;2022-10-16T15:02:34;18.40;99.90
29577;DHT22;16509;53.862;10.672;2022-10-16T15:05:12;16.80;99.90
29577;DHT22;16509;53.862;10.672;2022-10-16T15:07:38;17.00;99.90
29577;DHT22;16509;53.862;10.672;2022-10-16T15:10:03;16.70;99.90
29577;DHT22;16509;53.862;10.672;2022-10-16T15:12:29;16.90;99.90
29577;DHT22;16509;53.862;10.672;2022-10-16T15:14:55;16.90;99.90
29577;DHT22;16509;53.862;10.672;2022-10-16T15:17:20;17.20;99.90
29577;DHT22;16509;53.862;10.672;2022-10-16T15:19:46;16.70;99.90
29577;DHT22;16509;53.862;10.672;2022-10-16T15:22:11;16.70;99.90
29577;DHT22;16509;53.862;10.672;2022-10-16T15:24:37;16.80;99.90
29577;DHT22;16509;53.862;10.672;2022-10-16T15:27:03;16.90;99.90
29577;DHT22;16509;53.862;10.672;2022-10-16T15:29:28;17.10;99.90
29577;DHT22;16509;53.862;10.672;2022-10-16T15:31:54;16.80;99.90
29577;DHT22;16509;53.862;10.672;2022-10-16T15:34:19;17.40;99.90
29577;DHT22;16509;53.862;10.672;2022-10-16T15:36:45;16.50;99.90
29577;DHT22;16509;53.862;10.672;2022-10-16T15:39:18;16.90;99.90
29577;DHT22;16509;53.862;10.672;2022-10-16T15:41:45;16.40;99.90
29577;DHT22;16509;53.862;10.672;2022-10-16T15:44:16;16.70;99.90
29577;DHT22;16509;53.862;10.672;2022-10-16T15:46:42;16.40;99.90
29577;DHT22;16509;53.862;10.672;2022-10-16T15:49:08;16.20;99.90
29577;DHT22;16509;53.862;10.672;2022-10-16T15:51:38;16.00;99.90
29577;DHT22;16509;53.862;10.672;2022-10-16T15:54:04;16.80;99.90
29577;DHT22;16509;53.862;10.672;2022-10-16T15:56:30;16.90;99.90
29577;DHT22;16509;53.862;10.672;2022-10-16T15:58:59;16.50;99.90
29577;DHT22;16509;53.862;10.672;2022-10-16T16:01:24;16.00;99.90
29577;DHT22;16509;53.862;10.672;2022-10-16T16:03:53;16.00;99.90
29577;DHT22;16509;53.862;10.672;2022-10-16T16:06:18;16.10;99.90
29577;DHT22;16509;53.862;10.672;2022-10-16T16:08:45;16.40;99.90
29577;DHT22;16509;53.862;10.672;2022-10-16T16:11:12;15.50;99.90
29577;DHT22;16509;53.862;10.672;2022-10-16T16:13:39;17.30;99.90
29577;DHT22;16509;53.862;10.672;2022-10-16T16:16:06;15.40;99.90
29577;DHT22;16509;53.862;10.672;2022-10-16T16:18:33;15.70;99.90
29577;DHT22;16509;53.862;10.672;2022-10-16T16:20:58;15.50;99.90
29577;DHT22;16509;53.862;10.672;2022-10-16T16:23:24;15.50;99.90
29577;DHT22;16509;53.862;10.672;2022-10-16T16:28:33;16.00;99.90
29577;DHT22;16509;53.862;10.672;2022-10-16T16:30:58;15.50;99.90
29577;DHT22;16509;53.862;10.672;2022-10-16T16:33:24;16.50;99.90
29577;DHT22;16509;53.862;10.672;2022-10-16T16:35:49;16.20;99.90
29577;DHT22;16509;53.862;10.672;2022-10-16T16:38:15;15.60;99.90
29577;DHT22;16509;53.862;10.672;2022-10-16T16:40:41;15.90;99.90
29577;DHT22;16509;53.862;10.672;2022-10-16T16:43:06;15.50;99.90
29577;DHT22;16509;53.862;10.672;2022-10-16T16:45:35;15.20;99.90
29577;DHT22;16509;53.862;10.672;2022-10-16T16:48:01;14.90;99.90
29577;DHT22;16509;53.862;10.672;2022-10-16T16:50:26;14.90;99.90
29577;DHT22;16509;53.862;10.672;2022-10-16T16:52:52;14.70;99.90
29577;DHT22;16509;53.862;10.672;2022-10-16T16:55:17;14.80;99.90
29577;DHT22;16509;53.862;10.672;2022-10-16T16:57:43;14.50;99.90
29577;DHT22;16509;53.862;10.672;2022-10-16T17:00:09;14.40;99.90
29577;DHT22;16509;53.862;10.672;2022-10-16T17:02:34;14.60;99.90
29577;DHT22;16509;53.862;10.672;2022-10-16T17:05:00;14.60;99.90
29577;DHT22;16509;53.862;10.672;2022-10-16T17:07:25;15.00;99.90
29577;DHT22;16509;53.862;10.672;2022-10-16T17:09:52;14.20;99.90
29577;DHT22;16509;53.862;10.672;2022-10-16T17:12:18;14.00;99.90
29577;DHT22;16509;53.862;10.672;2022-10-16T17:14:43;15.20;99.90
29577;DHT22;16509;53.862;10.672;2022-10-16T17:17:09;13.90;99.90
29577;DHT22;16509;53.862;10.672;2022-10-16T17:19:34;13.90;99.90